This is the latest recevied weather packets stored in our database for station/object KF0JHJ. If no packets are shown the sender has not sent any weather packets the latest 10 day(s).
| Time | Temp. | Humidity | Pressure | Rain* | Wind** | Luminosity | Snow |
|---|---|---|---|---|---|---|---|
| 1777477514 | 8.89° C | 51% | 1017.1 hPa | - | - | 218 W/m² | - |
| 1777477211 | 9.44° C | 52% | 1017.3 hPa | - | - | 338 W/m² | - |
| 1777476907 | 9.44° C | 52% | 1017.1 hPa | - | - | 82 W/m² | - |
| 1777476605 | 9.44° C | 52% | 1016.9 hPa | - | - | 172 W/m² | - |
| 1777476301 | 8.89° C | 51% | 1017.1 hPa | - | - | 374 W/m² | - |
| 1777475996 | 8.89° C | 53% | 1016.9 hPa | - | - | 94 W/m² | - |
| 1777475693 | 9.44° C | 54% | 1017.2 hPa | - | - | 83 W/m² | - |
| 1777475389 | 8.89° C | 53% | 1017.3 hPa | - | - | 116 W/m² | - |
| 1777475084 | 8.89° C | 52% | 1017.5 hPa | - | - | 336 W/m² | - |
| 1777474782 | 8.89° C | 55% | 1017.3 hPa | - | - | 121 W/m² | - |
| 1777474477 | 8.33° C | 53% | 1017.5 hPa | - | - | 328 W/m² | - |
| 1777474174 | 8.33° C | 57% | 1017.2 hPa | - | - | 184 W/m² | - |
| 1777473872 | 7.78° C | 54% | 1017.4 hPa | - | - | 125 W/m² | - |
| 1777473569 | 7.78° C | 54% | 1017.5 hPa | - | - | 93 W/m² | - |
| 1777473265 | 8.33° C | 58% | 1017.6 hPa | - | - | 81 W/m² | - |
| 1777472961 | 8.33° C | 58% | 1017.3 hPa | - | - | 122 W/m² | - |
| 1777472658 | 8.33° C | 58% | 1017.5 hPa | - | - | 220 W/m² | - |
| 1777472354 | 7.78° C | 58% | 1017.5 hPa | - | - | 198 W/m² | - |
| 1777472052 | 7.78° C | 59% | 1017.4 hPa | - | - | 79 W/m² | - |
| 1777471747 | 7.78° C | 60% | 1017.3 hPa | - | - | 302 W/m² | - |
| 1777471444 | 7.22° C | 58% | 1017.2 hPa | - | - | 179 W/m² | - |
| 1777471140 | 7.22° C | 58% | 1017.4 hPa | - | - | 164 W/m² | - |
| 1777470837 | 7.22° C | 59% | 1017.3 hPa | - | - | 169 W/m² | - |
| 1777470535 | 7.22° C | 59% | 1017.3 hPa | - | - | 119 W/m² | - |
| 1777470230 | 8.33° C | 60% | 1017.4 hPa | - | - | 55 W/m² | - |
* Rain since midnight (hover to see other rain measurements)
** Current wind speed in m/s (hover to see current wind gust speed)